createdAt,value
2022-10-06T00:01:22.077Z,9.93
2022-10-06T00:03:54.716Z,9.77
2022-10-06T00:06:27.671Z,10.00
2022-10-06T00:09:01.179Z,9.73
2022-10-06T00:11:28.936Z,9.35
2022-10-06T00:13:58.672Z,9.80
2022-10-06T00:16:29.390Z,9.57
2022-10-06T00:18:59.367Z,9.68
2022-10-06T00:21:29.376Z,8.98
2022-10-06T00:24:01.665Z,9.00
2022-10-06T00:26:34.526Z,10.13
2022-10-06T00:29:08.309Z,8.87
2022-10-06T00:31:39.373Z,9.15
2022-10-06T00:34:13.203Z,9.70
2022-10-06T00:36:43.925Z,9.05
2022-10-06T00:39:11.582Z,9.75
2022-10-06T00:41:47.594Z,9.55
2022-10-06T00:44:21.541Z,10.00
2022-10-06T00:46:56.420Z,8.90
2022-10-06T00:49:33.861Z,9.80
2022-10-06T00:52:09.044Z,9.45
2022-10-06T00:54:41.486Z,9.07
2022-10-06T00:57:15.250Z,9.57
2022-10-06T00:59:46.641Z,10.13
2022-10-06T01:02:22.990Z,9.60
2022-10-06T01:05:03.541Z,9.07
2022-10-06T01:07:35.530Z,10.07
2022-10-06T01:10:10.687Z,9.77
2022-10-06T01:12:49.445Z,9.30
2022-10-06T01:15:21.530Z,9.43
2022-10-06T01:18:02.282Z,8.95
2022-10-06T01:20:34.515Z,9.82
2022-10-06T01:23:06.770Z,10.23
2022-10-06T01:25:40.030Z,10.07
2022-10-06T01:28:17.571Z,9.70
2022-10-06T01:30:50.945Z,10.07
2022-10-06T01:33:24.329Z,9.60
2022-10-06T01:35:55.977Z,9.98
2022-10-06T01:38:27.074Z,10.48
2022-10-06T01:41:07.793Z,9.75
2022-10-06T01:43:38.462Z,10.20
2022-10-06T01:48:40.262Z,10.38
2022-10-06T01:51:16.742Z,9.55
2022-10-06T01:53:52.628Z,9.38
2022-10-06T01:56:33.030Z,9.68
2022-10-06T01:59:06.520Z,9.35
2022-10-06T02:01:37.565Z,9.90
2022-10-06T02:04:08.352Z,9.10
2022-10-06T02:06:44.505Z,10.23
2022-10-06T02:09:12.757Z,10.32
2022-10-06T02:11:48.818Z,9.48
2022-10-06T02:14:20.372Z,9.70
2022-10-06T02:16:56.668Z,9.85
2022-10-06T02:19:32.906Z,9.05
2022-10-06T02:22:06.085Z,9.60
2022-10-06T02:24:39.267Z,9.38
2022-10-06T02:27:12.301Z,8.32
2022-10-06T02:29:45.225Z,9.13
2022-10-06T02:32:16.470Z,8.98
2022-10-06T02:34:45.704Z,8.88
2022-10-06T02:37:16.017Z,9.15
2022-10-06T02:39:43.680Z,9.02
2022-10-06T02:42:16.099Z,8.48
2022-10-06T02:44:49.775Z,9.07
2022-10-06T02:47:22.278Z,8.68
2022-10-06T02:49:59.558Z,8.98
2022-10-06T02:52:35.232Z,8.60
2022-10-06T02:55:11.986Z,9.05
2022-10-06T02:57:42.963Z,9.38
2022-10-06T03:00:14.931Z,8.80
2022-10-06T03:02:50.400Z,8.95
2022-10-06T03:05:19.234Z,9.18
2022-10-06T03:07:47.956Z,8.90
2022-10-06T03:10:18.368Z,8.93
2022-10-06T03:12:49.010Z,9.20
2022-10-06T03:15:19.747Z,8.88
2022-10-06T03:17:52.491Z,9.57
2022-10-06T03:20:27.783Z,8.73
2022-10-06T03:23:01.574Z,8.63
2022-10-06T03:25:29.515Z,9.00
2022-10-06T03:27:59.724Z,8.90
2022-10-06T03:30:41.356Z,8.95
2022-10-06T03:33:11.891Z,9.05
2022-10-06T03:35:45.442Z,8.55
2022-10-06T03:38:15.588Z,10.07
2022-10-06T03:40:45.544Z,9.65
2022-10-06T03:43:18.158Z,9.60
2022-10-06T03:45:57.683Z,9.98
2022-10-06T03:48:34.233Z,10.40
2022-10-06T03:51:14.749Z,9.20
2022-10-06T03:53:52.659Z,10.85
2022-10-06T03:56:30.153Z,10.25
2022-10-06T03:59:18.024Z,10.48
2022-10-06T04:01:49.607Z,10.65
2022-10-06T04:04:29.741Z,10.43
2022-10-06T04:07:09.045Z,10.60
2022-10-06T04:09:42.053Z,10.75
2022-10-06T04:12:18.522Z,10.10
2022-10-06T04:14:46.796Z,10.07
2022-10-06T04:17:25.845Z,10.65
2022-10-06T04:19:53.485Z,9.32
2022-10-06T04:22:26.313Z,10.52
2022-10-06T04:24:56.298Z,10.33
2022-10-06T04:27:32.674Z,9.55
2022-10-06T04:30:18.213Z,9.45
2022-10-06T04:32:49.144Z,9.45
2022-10-06T04:35:23.365Z,8.68
2022-10-06T04:37:52.003Z,9.52
2022-10-06T04:40:22.017Z,8.98
2022-10-06T04:42:52.707Z,9.05
2022-10-06T04:45:28.579Z,9.27
2022-10-06T04:47:58.932Z,8.80
2022-10-06T04:50:28.661Z,9.30
2022-10-06T04:53:10.969Z,9.50
2022-10-06T04:55:41.430Z,9.45
2022-10-06T04:58:12.178Z,9.45
2022-10-06T05:00:42.613Z,9.75
2022-10-06T05:03:13.605Z,8.93
2022-10-06T05:05:47.345Z,8.73
2022-10-06T05:08:19.850Z,10.13
2022-10-06T05:10:49.058Z,9.65
2022-10-06T05:13:16.812Z,10.07
2022-10-06T05:15:44.538Z,10.07
2022-10-06T05:18:17.858Z,10.05
2022-10-06T05:21:14.945Z,10.10
2022-10-06T05:23:46.157Z,10.45
2022-10-06T05:26:22.084Z,9.55
2022-10-06T05:28:53.591Z,10.23
2022-10-06T05:31:31.627Z,9.80
2022-10-06T05:34:05.441Z,9.52
2022-10-06T05:36:36.292Z,9.90
2022-10-06T05:39:06.741Z,10.25
2022-10-06T05:41:45.719Z,10.20
2022-10-06T05:44:22.616Z,10.73
2022-10-06T05:46:52.973Z,10.77
2022-10-06T05:49:25.857Z,10.30
2022-10-06T05:51:57.642Z,10.55
2022-10-06T05:54:32.207Z,11.07
2022-10-06T05:57:04.455Z,10.97
2022-10-06T05:59:44.520Z,10.73
2022-10-06T06:02:18.377Z,9.88
2022-10-06T06:04:51.633Z,10.90
2022-10-06T06:07:25.140Z,10.80
2022-10-06T06:10:01.916Z,9.70
2022-10-06T06:12:33.667Z,10.80
2022-10-06T06:15:32.705Z,9.35
2022-10-06T06:18:13.092Z,10.02
2022-10-06T06:20:43.842Z,10.07
2022-10-06T06:23:14.843Z,10.52
2022-10-06T06:25:53.763Z,9.43
2022-10-06T06:28:31.769Z,7.70
2022-10-06T06:31:20.155Z,7.63
2022-10-06T06:34:01.151Z,7.38
2022-10-06T06:36:41.863Z,6.95
2022-10-06T06:39:20.079Z,6.25
2022-10-06T06:41:55.102Z,6.05
2022-10-06T06:44:44.180Z,5.55
2022-10-06T06:47:33.781Z,5.38
2022-10-06T06:50:14.144Z,4.97
2022-10-06T06:52:51.409Z,5.05
2022-10-06T06:55:29.705Z,4.65
2022-10-06T06:58:03.385Z,4.53
2022-10-06T07:03:07.517Z,4.18
2022-10-06T07:05:45.374Z,4.70
2022-10-06T07:08:31.170Z,4.40
2022-10-06T07:11:18.651Z,4.60
2022-10-06T07:14:04.273Z,4.47
2022-10-06T07:16:53.864Z,4.82
2022-10-06T07:19:46.203Z,4.47
2022-10-06T07:22:41.186Z,4.50
2022-10-06T07:25:38.237Z,3.88
2022-10-06T07:28:17.329Z,4.47
2022-10-06T07:30:54.961Z,4.53
2022-10-06T07:33:35.852Z,4.20
2022-10-06T07:36:32.519Z,4.30
2022-10-06T07:39:00.630Z,4.40
2022-10-06T07:41:38.154Z,4.00
2022-10-06T07:44:18.409Z,4.68
2022-10-06T07:46:59.694Z,4.00
2022-10-06T07:49:58.475Z,4.10
2022-10-06T07:52:37.373Z,4.10
2022-10-06T07:55:09.427Z,3.60
2022-10-06T07:57:50.961Z,4.07
2022-10-06T08:00:22.744Z,3.85
2022-10-06T08:02:55.167Z,3.90
2022-10-06T08:05:26.350Z,3.88
2022-10-06T08:07:57.176Z,4.10
2022-10-06T08:10:28.179Z,3.92
2022-10-06T08:13:07.872Z,3.88
2022-10-06T08:15:44.393Z,4.60
2022-10-06T08:18:41.059Z,3.95
2022-10-06T08:21:24.644Z,3.60
2022-10-06T08:24:07.818Z,4.18
2022-10-06T08:26:52.666Z,4.15
2022-10-06T08:29:27.743Z,3.78
2022-10-06T08:31:59.635Z,3.90
2022-10-06T08:34:38.369Z,3.60
2022-10-06T08:37:19.829Z,3.72
2022-10-06T08:39:57.477Z,3.80
2022-10-06T08:42:39.727Z,4.03
2022-10-06T08:45:29.118Z,4.25
2022-10-06T08:48:13.401Z,3.45
2022-10-06T08:51:03.960Z,4.28
2022-10-06T08:53:55.535Z,3.72
2022-10-06T08:56:52.951Z,3.92
2022-10-06T08:59:27.310Z,3.75
2022-10-06T09:02:00.407Z,3.40
2022-10-06T09:04:42.606Z,4.05
2022-10-06T09:07:22.452Z,3.78
2022-10-06T09:10:11.942Z,3.50
2022-10-06T09:13:09.044Z,3.65
2022-10-06T09:16:08.289Z,3.60
2022-10-06T09:19:07.849Z,3.42
2022-10-06T09:21:53.283Z,3.55
2022-10-06T09:24:36.519Z,3.65
2022-10-06T09:27:22.374Z,4.07
2022-10-06T09:30:01.942Z,3.63
2022-10-06T09:32:39.997Z,3.60
2022-10-06T09:35:24.416Z,3.95
2022-10-06T09:38:09.452Z,4.05
2022-10-06T09:40:53.840Z,3.38
2022-10-06T09:43:31.670Z,3.25
2022-10-06T09:46:23.675Z,3.95
2022-10-06T09:49:17.854Z,3.38
2022-10-06T09:54:35.288Z,3.38
2022-10-06T09:57:34.504Z,3.58
2022-10-06T10:00:37.453Z,3.70
2022-10-06T10:03:13.340Z,9.43
2022-10-06T10:06:02.810Z,7.18
2022-10-06T10:08:37.845Z,7.30
2022-10-06T10:11:46.453Z,6.95
2022-10-06T10:14:21.942Z,6.28
2022-10-06T10:16:56.046Z,6.15
2022-10-06T10:19:43.712Z,5.68
2022-10-06T10:22:48.193Z,5.30
2022-10-06T10:26:03.257Z,5.28
2022-10-06T10:29:09.723Z,4.63
2022-10-06T10:32:08.231Z,4.95
2022-10-06T10:35:01.261Z,4.78
2022-10-06T10:37:47.797Z,4.70
2022-10-06T10:40:48.153Z,4.72
2022-10-06T10:43:32.562Z,3.63
2022-10-06T10:46:19.485Z,4.00
2022-10-06T10:49:11.960Z,4.55
2022-10-06T10:51:46.118Z,4.20
2022-10-06T10:54:36.635Z,4.53
2022-10-06T10:57:18.875Z,4.07
2022-10-06T11:00:06.886Z,4.07
2022-10-06T11:02:45.930Z,3.90
2022-10-06T11:05:30.993Z,4.30
2022-10-06T11:08:27.137Z,4.20
2022-10-06T11:11:09.824Z,4.38
2022-10-06T11:13:53.521Z,4.30
2022-10-06T11:16:44.516Z,4.47
2022-10-06T11:19:43.404Z,4.30
2022-10-06T11:22:42.908Z,4.10
2022-10-06T11:25:47.821Z,4.03
2022-10-06T11:28:18.229Z,3.92
2022-10-06T11:31:11.543Z,3.90
2022-10-06T11:33:54.509Z,4.18
2022-10-06T11:36:51.741Z,4.15
2022-10-06T11:39:38.288Z,4.10
2022-10-06T11:42:27.696Z,4.35
2022-10-06T11:45:06.087Z,4.35
2022-10-06T11:48:11.045Z,4.22
2022-10-06T11:50:45.381Z,4.47
2022-10-06T11:53:39.885Z,3.85
2022-10-06T11:56:23.876Z,4.00
2022-10-06T11:58:54.583Z,4.30
2022-10-06T12:01:47.868Z,3.92
2022-10-06T12:04:26.530Z,4.55
2022-10-06T12:06:59.123Z,4.43
2022-10-06T12:09:32.482Z,5.30
2022-10-06T12:12:26.605Z,4.20
2022-10-06T12:17:05.667Z,3.92
2022-10-06T12:18:04.771Z,4.90
2022-10-06T12:20:54.108Z,4.90
2022-10-06T12:23:34.927Z,4.22
2022-10-06T12:26:24.205Z,4.63
2022-10-06T12:29:03.419Z,4.60
2022-10-06T12:32:04.830Z,4.32
2022-10-06T12:34:44.158Z,4.60
2022-10-06T12:37:32.574Z,4.70
2022-10-06T12:40:41.173Z,5.30
2022-10-06T12:43:18.253Z,5.43
2022-10-06T12:46:16.399Z,5.32
2022-10-06T12:49:01.521Z,5.35
2022-10-06T12:51:34.856Z,5.40
2022-10-06T12:54:09.116Z,4.82
2022-10-06T12:56:40.571Z,5.00
2022-10-06T12:59:23.726Z,5.95
2022-10-06T13:01:59.131Z,5.20
2022-10-06T13:04:36.611Z,5.38
2022-10-06T13:07:26.276Z,4.82
2022-10-06T13:10:15.785Z,5.03
2022-10-06T13:12:47.735Z,5.53
2022-10-06T13:15:23.469Z,4.93
2022-10-06T13:18:15.814Z,5.22
2022-10-06T13:20:51.930Z,5.00
2022-10-06T13:23:38.480Z,4.97
2022-10-06T13:26:29.687Z,5.00
2022-10-06T13:29:07.766Z,5.07
2022-10-06T13:31:36.840Z,5.00
2022-10-06T13:34:35.027Z,5.00
2022-10-06T13:37:05.755Z,4.82
2022-10-06T13:39:33.987Z,4.40
2022-10-06T13:42:22.315Z,4.72
2022-10-06T13:45:01.411Z,4.88
2022-10-06T13:47:35.287Z,4.78
2022-10-06T13:50:19.961Z,4.55
2022-10-06T13:52:49.004Z,5.15
2022-10-06T13:55:21.535Z,5.20
2022-10-06T13:58:05.173Z,5.05
2022-10-06T14:01:00.696Z,4.78
2022-10-06T14:03:37.394Z,4.68
2022-10-06T14:06:26.673Z,4.68
2022-10-06T14:08:58.138Z,4.78
2022-10-06T14:11:31.123Z,4.60
2022-10-06T14:14:05.910Z,4.68
2022-10-06T14:16:37.154Z,4.72
2022-10-06T14:19:26.585Z,4.97
2022-10-06T14:21:54.684Z,4.80
2022-10-06T14:24:28.549Z,5.03
2022-10-06T14:27:02.476Z,4.57
2022-10-06T14:29:34.161Z,5.15
2022-10-06T14:32:15.827Z,5.13
2022-10-06T14:34:48.468Z,4.63
2022-10-06T14:37:24.375Z,5.60
2022-10-06T14:39:56.565Z,6.28
2022-10-06T14:42:30.567Z,4.78
2022-10-06T14:45:03.017Z,5.72
2022-10-06T14:47:33.886Z,5.53
2022-10-06T14:50:07.693Z,5.22
2022-10-06T14:52:41.675Z,5.07
2022-10-06T14:55:20.594Z,4.72
2022-10-06T14:57:51.277Z,5.10
2022-10-06T15:00:28.498Z,5.32
2022-10-06T15:03:04.568Z,5.20
2022-10-06T15:06:06.909Z,5.38
2022-10-06T15:08:45.636Z,5.13
2022-10-06T15:11:21.786Z,5.32
2022-10-06T15:13:55.646Z,5.50
2022-10-06T15:16:37.752Z,5.40
2022-10-06T15:19:12.366Z,5.28
2022-10-06T15:21:52.620Z,5.13
2022-10-06T15:24:26.385Z,5.43
2022-10-06T15:27:24.689Z,5.20
2022-10-06T15:29:53.064Z,4.88
2022-10-06T15:32:23.953Z,4.57
2022-10-06T15:34:52.580Z,5.03
2022-10-06T15:37:25.343Z,5.15
2022-10-06T15:39:59.439Z,5.20
2022-10-06T15:45:02.825Z,5.00
2022-10-06T15:47:40.235Z,4.82
2022-10-06T15:50:18.545Z,4.78
2022-10-06T15:52:55.375Z,4.82
2022-10-06T15:55:30.593Z,4.55
2022-10-06T15:58:01.799Z,4.53
2022-10-06T16:00:35.595Z,4.78
2022-10-06T16:03:22.902Z,5.10
2022-10-06T16:06:00.318Z,5.15
2022-10-06T16:08:34.133Z,7.28
2022-10-06T16:11:05.869Z,8.23
2022-10-06T16:13:38.830Z,7.30
2022-10-06T16:16:09.100Z,8.65
2022-10-06T16:18:36.830Z,7.55
2022-10-06T16:21:13.318Z,7.50
2022-10-06T16:26:18.651Z,9.60
2022-10-06T16:28:55.902Z,7.82
2022-10-06T16:31:26.428Z,7.93
2022-10-06T16:33:57.733Z,7.60
2022-10-06T16:36:36.853Z,7.18
2022-10-06T16:39:14.491Z,6.78
2022-10-06T16:41:42.826Z,6.30
2022-10-06T16:44:13.121Z,6.05
2022-10-06T16:46:40.998Z,5.90
2022-10-06T16:49:15.245Z,5.45
2022-10-06T16:51:52.462Z,5.45
2022-10-06T16:54:25.929Z,5.40
2022-10-06T16:59:29.579Z,5.40
2022-10-06T17:02:04.888Z,5.53
2022-10-06T17:04:35.977Z,5.23
2022-10-06T17:07:09.624Z,5.20
2022-10-06T17:09:55.850Z,5.07
2022-10-06T17:12:34.761Z,5.25
2022-10-06T17:15:08.268Z,5.20
2022-10-06T17:20:07.943Z,5.03
2022-10-06T17:22:42.025Z,5.13
2022-10-06T17:25:14.247Z,5.03
2022-10-06T17:27:44.812Z,5.00
2022-10-06T17:30:23.549Z,5.18
2022-10-06T17:32:54.335Z,5.03
2022-10-06T17:35:27.840Z,4.68
2022-10-06T17:40:39.068Z,4.75
2022-10-06T17:43:07.596Z,4.68
2022-10-06T17:45:41.080Z,4.72
2022-10-06T17:48:08.832Z,4.15
2022-10-06T17:50:39.051Z,4.70
2022-10-06T17:53:09.385Z,4.85
2022-10-06T17:55:43.406Z,4.90
2022-10-06T17:58:15.235Z,4.30
2022-10-06T18:00:46.738Z,4.68
2022-10-06T18:03:14.357Z,4.80
2022-10-06T18:05:48.596Z,4.55
2022-10-06T18:08:23.645Z,4.75
2022-10-06T18:11:12.375Z,4.80
2022-10-06T18:13:48.004Z,4.50
2022-10-06T18:16:18.859Z,4.70
2022-10-06T18:18:49.728Z,4.38
2022-10-06T18:21:25.418Z,4.15
2022-10-06T18:23:58.692Z,4.43
2022-10-06T18:26:38.387Z,4.38
2022-10-06T18:29:07.027Z,4.22
2022-10-06T18:31:38.726Z,4.72
2022-10-06T18:37:07.768Z,4.30
2022-10-06T18:39:39.976Z,4.18
2022-10-06T18:42:13.922Z,4.63
2022-10-06T18:45:00.260Z,4.50
2022-10-06T18:47:48.885Z,4.03
2022-10-06T18:50:19.904Z,4.45
2022-10-06T18:52:52.289Z,4.18
2022-10-06T18:55:22.299Z,4.20
2022-10-06T18:57:53.138Z,4.50
2022-10-06T19:00:29.617Z,4.57
2022-10-06T19:03:03.817Z,4.60
2022-10-06T19:05:35.212Z,4.50
2022-10-06T19:08:09.426Z,4.15
2022-10-06T19:10:57.670Z,4.32
2022-10-06T19:13:28.306Z,4.32
2022-10-06T19:16:04.633Z,4.15
2022-10-06T19:18:37.922Z,3.92
2022-10-06T19:21:09.869Z,4.00
2022-10-06T19:23:41.369Z,4.05
2022-10-06T19:26:14.104Z,4.55
2022-10-06T19:28:44.579Z,3.83
2022-10-06T19:31:17.965Z,4.15
2022-10-06T19:33:54.349Z,4.30
2022-10-06T19:36:29.270Z,4.30
2022-10-06T19:39:04.909Z,4.30
2022-10-06T19:41:57.500Z,4.10
2022-10-06T19:44:26.318Z,4.20
2022-10-06T19:46:57.199Z,3.88
2022-10-06T19:49:28.111Z,3.88
2022-10-06T19:51:56.827Z,4.30
2022-10-06T19:54:27.970Z,4.53
2022-10-06T19:57:01.894Z,4.22
2022-10-06T19:59:36.772Z,4.43
2022-10-06T20:02:09.685Z,4.10
2022-10-06T20:04:43.087Z,4.00
2022-10-06T20:07:13.741Z,3.80
2022-10-06T20:09:41.578Z,4.03
2022-10-06T20:12:12.338Z,4.47
2022-10-06T20:14:42.811Z,3.97
2022-10-06T20:17:12.970Z,4.43
2022-10-06T20:19:47.237Z,3.92
2022-10-06T20:22:21.004Z,4.07
2022-10-06T20:24:48.687Z,4.22
2022-10-06T20:27:19.989Z,4.32
2022-10-06T20:29:48.274Z,4.50
2022-10-06T20:32:18.935Z,4.28
2022-10-06T20:34:46.910Z,4.25
2022-10-06T20:37:25.771Z,4.57
2022-10-06T20:40:11.564Z,4.03
2022-10-06T20:42:44.871Z,4.50
2022-10-06T20:45:15.409Z,4.20
2022-10-06T20:47:48.672Z,4.97
2022-10-06T20:50:16.563Z,4.50
2022-10-06T20:52:47.323Z,4.13
2022-10-06T20:55:17.786Z,4.38
2022-10-06T20:57:45.897Z,4.30
2022-10-06T21:00:22.951Z,4.63
2022-10-06T21:02:56.429Z,4.22
2022-10-06T21:08:02.056Z,4.10
2022-10-06T21:10:32.113Z,4.72
2022-10-06T21:12:59.710Z,4.53
2022-10-06T21:15:30.292Z,4.65
2022-10-06T21:18:02.406Z,4.33
2022-10-06T21:20:30.678Z,4.13
2022-10-06T21:23:03.567Z,4.30
2022-10-06T21:25:40.427Z,4.90
2022-10-06T21:28:09.115Z,4.40
2022-10-06T21:30:44.249Z,4.30
2022-10-06T21:33:14.841Z,4.25
2022-10-06T21:35:45.200Z,4.40
2022-10-06T21:38:14.916Z,4.50
2022-10-06T21:40:42.624Z,4.30
2022-10-06T21:43:13.129Z,4.57
2022-10-06T21:46:17.125Z,4.65
2022-10-06T21:48:56.065Z,4.65
2022-10-06T21:51:27.605Z,4.55
2022-10-06T21:53:58.328Z,4.50
2022-10-06T21:56:39.851Z,4.40
2022-10-06T21:59:11.195Z,4.53
2022-10-06T22:01:41.909Z,4.40
2022-10-06T22:04:14.320Z,4.60
2022-10-06T22:06:45.835Z,4.45
2022-10-06T22:09:16.054Z,4.57
2022-10-06T22:11:49.244Z,4.60
2022-10-06T22:14:23.921Z,4.65
2022-10-06T22:16:54.955Z,4.53
2022-10-06T22:19:31.670Z,4.53
2022-10-06T22:22:07.353Z,4.35
2022-10-06T22:27:07.958Z,4.40
2022-10-06T22:29:47.303Z,4.60
2022-10-06T22:32:23.023Z,4.80
2022-10-06T22:34:54.104Z,4.60
2022-10-06T22:37:25.598Z,4.90
2022-10-06T22:40:02.007Z,4.38
2022-10-06T22:42:40.585Z,4.85
2022-10-06T22:45:13.636Z,4.70
2022-10-06T22:47:46.393Z,4.85
2022-10-06T22:50:21.181Z,4.93
2022-10-06T22:52:52.095Z,4.45
2022-10-06T22:55:23.147Z,4.10
2022-10-06T22:57:55.987Z,4.30
2022-10-06T23:00:25.077Z,4.40
2022-10-06T23:02:55.541Z,4.35
2022-10-06T23:05:28.869Z,4.77
2022-10-06T23:08:03.827Z,4.55
2022-10-06T23:10:37.841Z,4.53
2022-10-06T23:13:05.187Z,4.57
2022-10-06T23:15:44.043Z,4.60
2022-10-06T23:18:19.297Z,4.20
2022-10-06T23:20:52.470Z,4.40
2022-10-06T23:23:23.193Z,4.80
2022-10-06T23:25:54.350Z,4.47
2022-10-06T23:28:27.002Z,4.25
2022-10-06T23:30:57.586Z,4.00
2022-10-06T23:33:29.205Z,4.43
2022-10-06T23:36:07.962Z,4.65
2022-10-06T23:38:45.258Z,4.25
2022-10-06T23:41:18.210Z,4.45
2022-10-06T23:43:45.637Z,4.22
2022-10-06T23:46:13.627Z,4.28
2022-10-06T23:48:47.046Z,4.47
2022-10-06T23:51:15.542Z,4.55
2022-10-06T23:53:50.467Z,4.03
2022-10-06T23:56:21.702Z,4.13
2022-10-06T23:58:51.413Z,4.53
